createdAt,value
2023-03-06T00:00:51.461Z,21.15
2023-03-06T00:03:19.875Z,19.27
2023-03-06T00:05:48.310Z,22.73
2023-03-06T00:08:16.307Z,20.25
2023-03-06T00:10:44.558Z,24.80
2023-03-06T00:13:16.542Z,20.38
2023-03-06T00:15:46.437Z,17.48
2023-03-06T00:18:14.812Z,19.23
2023-03-06T00:20:43.907Z,21.00
2023-03-06T00:23:12.835Z,22.33
2023-03-06T00:25:44.023Z,19.40
2023-03-06T00:28:12.408Z,19.43
2023-03-06T00:30:40.342Z,22.67
2023-03-06T00:33:09.433Z,17.88
2023-03-06T00:35:39.396Z,15.52
2023-03-06T00:38:07.251Z,19.38
2023-03-06T00:40:35.214Z,17.02
2023-03-06T00:43:02.987Z,22.67
2023-03-06T00:45:30.798Z,16.98
2023-03-06T00:47:58.871Z,18.10
2023-03-06T00:50:28.594Z,21.27
2023-03-06T00:52:56.801Z,21.13
2023-03-06T00:55:24.547Z,17.23
2023-03-06T00:57:52.240Z,16.70
2023-03-06T01:00:21.031Z,19.40
2023-03-06T01:02:48.864Z,19.05
2023-03-06T01:05:16.731Z,18.98
2023-03-06T01:07:45.993Z,16.63
2023-03-06T01:10:13.781Z,21.55
2023-03-06T01:12:41.644Z,18.83
2023-03-06T01:15:10.505Z,20.33
2023-03-06T01:17:38.272Z,18.58
2023-03-06T01:20:07.149Z,16.55
2023-03-06T01:22:35.026Z,15.27
2023-03-06T01:25:04.486Z,16.75
2023-03-06T01:27:32.287Z,22.95
2023-03-06T01:29:59.986Z,15.98
2023-03-06T01:32:27.832Z,18.67
2023-03-06T01:34:55.698Z,19.38
2023-03-06T01:37:23.514Z,20.92
2023-03-06T01:39:51.346Z,22.08
2023-03-06T01:42:20.546Z,22.30
2023-03-06T01:44:59.851Z,20.00
2023-03-06T01:47:28.116Z,17.05
2023-03-06T01:49:57.744Z,19.15
2023-03-06T01:52:30.288Z,20.02
2023-03-06T01:55:01.666Z,20.80
2023-03-06T01:57:33.671Z,19.55
2023-03-06T02:02:31.774Z,22.08
2023-03-06T02:05:00.721Z,22.25
2023-03-06T02:07:29.694Z,21.33
2023-03-06T02:09:57.644Z,21.27
2023-03-06T02:12:26.217Z,22.55
2023-03-06T02:14:55.504Z,22.85
2023-03-06T02:17:24.577Z,20.95
2023-03-06T02:19:59.526Z,23.95
2023-03-06T02:22:35.776Z,25.10
2023-03-06T02:25:09.284Z,23.85
2023-03-06T02:27:38.599Z,22.02
2023-03-06T02:30:09.421Z,22.42
2023-03-06T02:32:37.267Z,18.73
2023-03-06T02:35:07.144Z,21.13
2023-03-06T02:37:34.910Z,23.25
2023-03-06T02:40:09.298Z,19.25
2023-03-06T02:42:38.481Z,19.90
2023-03-06T02:45:12.177Z,24.20
2023-03-06T02:47:39.886Z,26.02
2023-03-06T02:50:08.118Z,29.15
2023-03-06T02:52:35.921Z,25.75
2023-03-06T02:55:04.528Z,31.58
2023-03-06T02:57:32.777Z,26.73
2023-03-06T03:00:01.861Z,30.20
2023-03-06T03:02:29.635Z,25.55
2023-03-06T03:04:57.464Z,27.77
2023-03-06T03:07:25.219Z,28.30
2023-03-06T03:09:52.993Z,28.25
2023-03-06T03:12:22.312Z,34.58
2023-03-06T03:14:50.516Z,33.40
2023-03-06T03:17:19.641Z,32.55
2023-03-06T03:19:47.775Z,28.95
2023-03-06T03:22:15.559Z,32.58
2023-03-06T03:24:43.841Z,29.55
2023-03-06T03:27:12.209Z,29.80
2023-03-06T03:29:40.130Z,37.05
2023-03-06T03:32:08.312Z,29.15
2023-03-06T03:34:37.477Z,32.35
2023-03-06T03:37:05.313Z,32.00
2023-03-06T03:39:33.442Z,32.05
2023-03-06T03:42:01.234Z,31.17
2023-03-06T03:44:28.968Z,31.67
2023-03-06T03:46:56.652Z,30.52
2023-03-06T03:49:24.394Z,33.53
2023-03-06T03:51:53.730Z,31.27
2023-03-06T03:54:21.780Z,32.60
2023-03-06T03:56:49.666Z,34.22
2023-03-06T03:59:17.472Z,34.92
2023-03-06T04:01:45.932Z,37.17
2023-03-06T04:04:13.977Z,35.50
2023-03-06T04:06:41.720Z,30.70
2023-03-06T04:09:11.331Z,31.10
2023-03-06T04:11:39.187Z,33.97
2023-03-06T04:14:08.274Z,32.28
2023-03-06T04:16:36.300Z,37.53
2023-03-06T04:19:04.226Z,33.90
2023-03-06T04:21:32.001Z,36.67
2023-03-06T04:23:59.744Z,32.92
2023-03-06T04:26:29.007Z,35.63
2023-03-06T04:28:56.809Z,33.42
2023-03-06T04:31:24.598Z,31.10
2023-03-06T04:33:52.705Z,34.78
2023-03-06T04:36:27.924Z,32.33
2023-03-06T04:38:55.817Z,37.08
2023-03-06T04:41:23.869Z,36.95
2023-03-06T04:43:53.502Z,37.53
2023-03-06T04:46:21.295Z,40.95
2023-03-06T04:48:49.094Z,31.70
2023-03-06T04:51:16.994Z,40.45
2023-03-06T04:53:44.858Z,39.55
2023-03-06T04:56:12.697Z,38.20
2023-03-06T04:58:40.863Z,39.65
2023-03-06T05:01:10.081Z,34.25
2023-03-06T05:03:37.991Z,35.08
2023-03-06T05:06:06.400Z,39.55
2023-03-06T05:08:34.157Z,39.22
2023-03-06T05:11:03.457Z,35.97
2023-03-06T05:13:31.449Z,32.53
2023-03-06T05:16:03.723Z,31.48
2023-03-06T05:18:33.334Z,30.45
2023-03-06T05:21:01.145Z,37.50
2023-03-06T05:23:29.732Z,35.65
2023-03-06T05:25:57.621Z,33.03
2023-03-06T05:28:26.541Z,34.65
2023-03-06T05:30:54.272Z,32.97
2023-03-06T05:33:22.047Z,32.22
2023-03-06T05:35:51.965Z,31.17
2023-03-06T05:38:20.277Z,34.05
2023-03-06T05:40:48.947Z,28.48
2023-03-06T05:43:16.709Z,29.67
2023-03-06T05:45:44.627Z,31.92
2023-03-06T05:48:14.492Z,29.73
2023-03-06T05:50:42.235Z,34.03
2023-03-06T05:53:11.393Z,31.10
2023-03-06T05:55:39.177Z,31.50
2023-03-06T05:58:07.148Z,30.58
2023-03-06T06:00:34.870Z,30.95
2023-03-06T06:03:03.101Z,30.40
2023-03-06T06:05:31.141Z,26.73
2023-03-06T06:07:58.841Z,33.08
2023-03-06T06:10:28.007Z,31.67
2023-03-06T06:12:55.776Z,29.33
2023-03-06T06:15:23.925Z,31.88
2023-03-06T06:17:51.657Z,30.90
2023-03-06T06:20:20.071Z,28.17
2023-03-06T06:22:47.920Z,27.38
2023-03-06T06:25:16.460Z,32.75
2023-03-06T06:27:45.629Z,30.35
2023-03-06T06:30:14.112Z,28.70
2023-03-06T06:32:41.885Z,35.15
2023-03-06T06:35:10.520Z,27.73
2023-03-06T06:37:38.395Z,27.98
2023-03-06T06:40:07.396Z,34.47
2023-03-06T06:42:39.858Z,27.30
2023-03-06T06:45:11.385Z,34.15
2023-03-06T06:47:41.914Z,38.75
2023-03-06T06:50:13.543Z,29.52
2023-03-06T06:52:41.517Z,32.22
2023-03-06T06:55:10.467Z,36.08
2023-03-06T06:57:38.313Z,34.47
2023-03-06T07:00:07.192Z,33.70
2023-03-06T07:02:36.346Z,27.30
2023-03-06T07:05:05.608Z,33.72
2023-03-06T07:07:36.519Z,32.15
2023-03-06T07:10:06.562Z,31.13
2023-03-06T07:12:35.497Z,37.55
2023-03-06T07:15:04.055Z,35.70
2023-03-06T07:17:31.804Z,31.98
2023-03-06T07:20:00.864Z,30.88
2023-03-06T07:22:31.939Z,36.70
2023-03-06T07:25:04.164Z,33.25
2023-03-06T07:27:32.107Z,30.58
2023-03-06T07:29:59.863Z,31.63
2023-03-06T07:32:27.808Z,31.25
2023-03-06T07:35:09.093Z,28.52
2023-03-06T07:37:44.661Z,31.67
2023-03-06T07:40:13.588Z,32.70
2023-03-06T07:42:41.338Z,35.97
2023-03-06T07:45:10.160Z,32.35
2023-03-06T07:47:37.910Z,34.05
2023-03-06T07:50:07.348Z,29.85
2023-03-06T07:52:35.598Z,27.30
2023-03-06T07:55:05.553Z,35.88
2023-03-06T07:57:33.323Z,36.90
2023-03-06T08:00:01.107Z,31.80
2023-03-06T08:02:28.867Z,34.00
2023-03-06T08:04:57.230Z,36.72
2023-03-06T08:07:25.370Z,37.95
2023-03-06T08:09:53.156Z,37.42
2023-03-06T08:12:22.410Z,36.20
2023-03-06T08:14:50.132Z,35.10
2023-03-06T08:17:17.968Z,34.28
2023-03-06T08:19:45.734Z,39.63
2023-03-06T08:22:14.040Z,39.10
2023-03-06T08:24:42.509Z,35.38
2023-03-06T08:27:10.319Z,32.25
2023-03-06T08:29:39.878Z,35.78
2023-03-06T08:32:11.539Z,37.92
2023-03-06T08:34:40.167Z,33.95
2023-03-06T08:37:08.380Z,41.38
2023-03-06T08:39:36.483Z,36.65
2023-03-06T08:42:04.575Z,34.92
2023-03-06T08:44:32.464Z,31.80
2023-03-06T08:47:02.153Z,32.47
2023-03-06T08:49:29.907Z,36.33
2023-03-06T08:51:57.726Z,36.92
2023-03-06T08:54:25.506Z,40.72
2023-03-06T08:56:53.892Z,27.38
2023-03-06T08:59:21.649Z,31.77
2023-03-06T09:01:49.531Z,27.65
2023-03-06T09:04:18.888Z,30.80
2023-03-06T09:06:46.928Z,28.25
2023-03-06T09:09:15.077Z,25.88
2023-03-06T09:11:42.885Z,30.92
2023-03-06T09:14:10.619Z,29.02
2023-03-06T09:16:38.827Z,33.50
2023-03-06T09:19:07.101Z,31.05
2023-03-06T09:21:36.199Z,31.55
2023-03-06T09:24:03.982Z,32.13
2023-03-06T09:26:45.008Z,30.55
2023-03-06T09:29:15.877Z,28.98
2023-03-06T09:31:43.659Z,27.10
2023-03-06T09:34:11.519Z,31.75
2023-03-06T09:36:55.579Z,29.42
2023-03-06T09:39:25.421Z,32.33
2023-03-06T09:41:53.638Z,25.45
2023-03-06T09:44:23.899Z,28.20
2023-03-06T09:47:10.112Z,29.60
2023-03-06T09:49:52.850Z,26.13
2023-03-06T09:52:32.571Z,28.17
2023-03-06T09:55:10.236Z,32.17
2023-03-06T09:57:42.274Z,28.20
2023-03-06T10:02:47.016Z,27.15
2023-03-06T10:05:22.697Z,31.73
2023-03-06T10:07:58.093Z,29.30
2023-03-06T10:10:28.445Z,30.00
2023-03-06T10:13:03.322Z,24.05
2023-03-06T10:15:34.345Z,23.92
2023-03-06T10:18:03.035Z,23.45
2023-03-06T10:20:37.828Z,26.50
2023-03-06T10:23:27.364Z,25.20
2023-03-06T10:26:01.152Z,24.42
2023-03-06T10:28:36.667Z,25.38
2023-03-06T10:31:10.503Z,26.63
2023-03-06T10:33:51.875Z,32.72
2023-03-06T10:36:22.178Z,20.70
2023-03-06T10:38:51.357Z,29.10
2023-03-06T10:41:26.094Z,30.15
2023-03-06T10:44:20.633Z,26.00
2023-03-06T10:46:50.078Z,26.77
2023-03-06T10:49:27.518Z,33.05
2023-03-06T10:52:01.604Z,23.45
2023-03-06T10:54:32.359Z,25.80
2023-03-06T10:57:19.314Z,26.08
2023-03-06T10:59:53.467Z,28.58
2023-03-06T11:02:32.402Z,26.45
2023-03-06T11:05:03.786Z,29.02
2023-03-06T11:07:33.023Z,27.20
2023-03-06T11:10:17.900Z,21.92
2023-03-06T11:12:58.101Z,23.65
2023-03-06T11:15:26.766Z,25.42
2023-03-06T11:18:01.278Z,23.83
2023-03-06T11:20:48.595Z,21.40
2023-03-06T11:23:20.471Z,26.20
2023-03-06T11:25:54.973Z,23.65
2023-03-06T11:28:26.903Z,27.00
2023-03-06T11:30:58.589Z,26.70
2023-03-06T11:33:32.461Z,23.83
2023-03-06T11:36:10.467Z,24.30
2023-03-06T11:38:45.239Z,23.98
2023-03-06T11:41:23.531Z,27.05
2023-03-06T11:44:00.655Z,20.38
2023-03-06T11:46:34.092Z,26.38
2023-03-06T11:49:10.754Z,23.05
2023-03-06T11:51:44.276Z,24.00
2023-03-06T11:54:14.242Z,23.73
2023-03-06T11:56:53.630Z,24.90
2023-03-06T11:59:52.469Z,21.48
2023-03-06T12:02:34.356Z,25.63
2023-03-06T12:05:23.059Z,24.25
2023-03-06T12:08:02.560Z,25.55
2023-03-06T12:10:37.112Z,29.48
2023-03-06T12:16:08.274Z,25.27
2023-03-06T12:18:44.842Z,34.55
2023-03-06T12:21:22.622Z,22.05
2023-03-06T12:24:03.771Z,23.13
2023-03-06T12:26:50.728Z,26.98
2023-03-06T12:29:34.551Z,27.08
2023-03-06T12:32:15.223Z,25.33
2023-03-06T12:35:01.418Z,26.08
2023-03-06T12:37:41.159Z,21.75
2023-03-06T12:40:35.800Z,17.33
2023-03-06T12:43:23.208Z,24.38
2023-03-06T12:45:58.899Z,23.75
2023-03-06T12:48:30.342Z,25.35
2023-03-06T12:50:58.784Z,26.27
2023-03-06T12:53:29.476Z,21.00
2023-03-06T12:55:59.611Z,22.10
2023-03-06T12:58:50.951Z,24.27
2023-03-06T13:01:53.953Z,24.20
2023-03-06T13:04:45.537Z,23.55
2023-03-06T13:07:30.067Z,18.77
2023-03-06T13:10:10.288Z,18.95
2023-03-06T13:12:49.856Z,22.05
2023-03-06T13:15:33.002Z,21.67
2023-03-06T13:18:02.580Z,20.88
2023-03-06T13:20:42.842Z,20.83
2023-03-06T13:23:51.865Z,24.45
2023-03-06T13:26:52.078Z,16.73
2023-03-06T13:30:02.542Z,21.15
2023-03-06T13:32:33.822Z,21.75
2023-03-06T13:35:04.268Z,24.17
2023-03-06T13:38:00.129Z,21.02
2023-03-06T13:40:35.138Z,22.30
2023-03-06T13:43:18.522Z,17.98
2023-03-06T13:45:48.259Z,17.48
2023-03-06T13:48:44.397Z,22.90
2023-03-06T13:51:26.461Z,19.05
2023-03-06T13:54:21.241Z,17.92
2023-03-06T13:57:27.742Z,17.98
2023-03-06T14:00:26.936Z,23.88
2023-03-06T14:03:29.328Z,19.88
2023-03-06T14:05:58.899Z,21.15
2023-03-06T14:08:31.390Z,17.80
2023-03-06T14:11:04.800Z,19.27
2023-03-06T14:13:45.428Z,17.52
2023-03-06T14:18:48.822Z,16.23
2023-03-06T14:21:27.062Z,21.63
2023-03-06T14:24:01.076Z,19.00
2023-03-06T14:26:32.864Z,20.52
2023-03-06T14:29:01.989Z,17.08
2023-03-06T14:31:32.707Z,16.27
2023-03-06T14:34:02.474Z,17.05
2023-03-06T14:36:35.532Z,17.35
2023-03-06T14:39:12.238Z,15.15
2023-03-06T14:41:40.603Z,18.52
2023-03-06T14:44:10.372Z,20.52
2023-03-06T14:46:38.215Z,17.83
2023-03-06T14:49:08.198Z,14.85
2023-03-06T14:51:41.777Z,29.77
2023-03-06T14:54:16.873Z,16.63
2023-03-06T14:56:48.381Z,15.07
2023-03-06T14:59:21.759Z,13.43
2023-03-06T15:01:52.459Z,20.45
2023-03-06T15:04:27.633Z,17.13
2023-03-06T15:06:57.467Z,16.70
2023-03-06T15:09:30.205Z,14.70
2023-03-06T15:12:00.206Z,13.32
2023-03-06T15:14:33.080Z,16.85
2023-03-06T15:17:21.615Z,14.75
2023-03-06T15:19:51.882Z,18.00
2023-03-06T15:22:27.853Z,23.80
2023-03-06T15:25:18.723Z,19.30
2023-03-06T15:27:50.789Z,14.65
2023-03-06T15:33:24.944Z,14.65
2023-03-06T15:35:57.212Z,13.33
2023-03-06T15:38:30.800Z,14.45
2023-03-06T15:41:02.388Z,15.95
2023-03-06T15:43:35.086Z,14.70
2023-03-06T15:46:03.216Z,18.58
2023-03-06T15:48:30.923Z,14.60
2023-03-06T15:50:59.202Z,15.35
2023-03-06T15:53:27.027Z,14.88
2023-03-06T15:55:55.185Z,11.30
2023-03-06T15:58:26.828Z,15.07
2023-03-06T16:00:54.645Z,18.92
2023-03-06T16:03:22.453Z,13.02
2023-03-06T16:05:50.198Z,18.45
2023-03-06T16:08:17.918Z,13.60
2023-03-06T16:10:46.790Z,14.80
2023-03-06T16:13:17.662Z,23.20
2023-03-06T16:15:49.981Z,13.82
2023-03-06T16:18:18.669Z,16.42
2023-03-06T16:20:47.090Z,15.23
2023-03-06T16:23:16.018Z,14.52
2023-03-06T16:25:48.761Z,15.70
2023-03-06T16:28:17.556Z,17.08
2023-03-06T16:30:47.210Z,16.58
2023-03-06T16:33:15.203Z,13.50
2023-03-06T16:35:44.478Z,19.42
2023-03-06T16:38:12.409Z,16.08
2023-03-06T16:40:41.401Z,14.13
2023-03-06T16:43:10.619Z,16.42
2023-03-06T16:45:40.225Z,14.68
2023-03-06T16:48:14.986Z,16.15
2023-03-06T16:50:43.158Z,17.33
2023-03-06T16:53:11.019Z,20.45
2023-03-06T16:55:38.827Z,17.85
2023-03-06T16:58:06.706Z,16.70
2023-03-06T17:00:34.515Z,16.02
2023-03-06T17:03:03.159Z,17.60
2023-03-06T17:05:34.327Z,15.10
2023-03-06T17:08:02.420Z,11.00
2023-03-06T17:10:30.231Z,16.27
2023-03-06T17:12:58.483Z,17.10
2023-03-06T17:15:26.289Z,17.77
2023-03-06T17:17:54.105Z,18.08
2023-03-06T17:20:23.849Z,15.35
2023-03-06T17:22:53.068Z,20.67
2023-03-06T17:25:21.244Z,23.00
2023-03-06T17:27:49.187Z,18.23
2023-03-06T17:30:17.056Z,15.25
2023-03-06T17:32:44.804Z,14.95
2023-03-06T17:35:12.535Z,21.67
2023-03-06T17:37:40.774Z,17.88
2023-03-06T17:40:12.103Z,16.45
2023-03-06T17:42:39.961Z,21.13
2023-03-06T17:45:11.129Z,18.83
2023-03-06T17:47:39.030Z,15.80
2023-03-06T17:50:07.251Z,17.42
2023-03-06T17:52:34.975Z,21.58
2023-03-06T17:55:02.793Z,23.08
2023-03-06T17:57:32.068Z,20.38
2023-03-06T17:59:59.895Z,18.35
2023-03-06T18:02:27.628Z,17.60
2023-03-06T18:04:58.060Z,16.60
2023-03-06T18:07:26.628Z,18.05
2023-03-06T18:09:54.469Z,17.25
2023-03-06T18:12:22.378Z,18.65
2023-03-06T18:14:51.757Z,18.40
2023-03-06T18:17:19.497Z,18.50
2023-03-06T18:19:47.809Z,18.85
2023-03-06T18:22:15.520Z,22.00
2023-03-06T18:24:43.413Z,17.90
2023-03-06T18:27:11.241Z,15.18
2023-03-06T18:29:38.968Z,16.05
2023-03-06T18:32:10.591Z,18.73
2023-03-06T18:34:38.418Z,14.93
2023-03-06T18:37:06.274Z,16.90
2023-03-06T18:39:33.965Z,17.20
2023-03-06T18:42:01.788Z,14.80
2023-03-06T18:44:29.605Z,17.70
2023-03-06T18:46:57.489Z,14.88
2023-03-06T18:49:26.768Z,20.77
2023-03-06T18:51:54.527Z,17.95
2023-03-06T18:54:22.360Z,17.17
2023-03-06T18:56:50.109Z,17.15
2023-03-06T18:59:18.979Z,15.80
2023-03-06T19:01:47.540Z,19.98
2023-03-06T19:04:15.935Z,18.75
2023-03-06T19:06:45.030Z,20.60
2023-03-06T19:09:12.821Z,20.38
2023-03-06T19:11:41.006Z,18.65
2023-03-06T19:14:08.695Z,18.38
2023-03-06T19:16:36.568Z,16.92
2023-03-06T19:19:04.315Z,21.70
2023-03-06T19:21:32.060Z,26.00
2023-03-06T19:24:03.247Z,21.45
2023-03-06T19:26:31.199Z,16.53
2023-03-06T19:28:58.979Z,16.48
2023-03-06T19:31:28.779Z,19.02
2023-03-06T19:33:57.749Z,15.75
2023-03-06T19:36:28.811Z,17.38
2023-03-06T19:38:57.918Z,16.80
2023-03-06T19:41:27.885Z,19.05
2023-03-06T19:43:58.328Z,16.88
2023-03-06T19:46:27.253Z,17.30
2023-03-06T19:48:56.171Z,17.77
2023-03-06T19:51:24.160Z,17.40
2023-03-06T19:53:52.031Z,20.63
2023-03-06T19:56:21.609Z,16.88
2023-03-06T19:58:50.718Z,16.85
2023-03-06T20:01:20.579Z,17.75
2023-03-06T20:03:50.522Z,16.70
2023-03-06T20:06:19.977Z,18.05
2023-03-06T20:08:48.547Z,19.17
2023-03-06T20:11:18.107Z,18.40
2023-03-06T20:13:47.826Z,18.50
2023-03-06T20:16:18.070Z,17.58
2023-03-06T20:18:46.624Z,17.55
2023-03-06T20:21:15.647Z,17.08
2023-03-06T20:23:43.952Z,21.08
2023-03-06T20:26:14.290Z,20.05
2023-03-06T20:28:43.024Z,17.40
2023-03-06T20:31:13.624Z,16.52
2023-03-06T20:33:43.168Z,18.85
2023-03-06T20:36:13.347Z,20.33
2023-03-06T20:38:41.297Z,23.20
2023-03-06T20:41:15.357Z,19.70
2023-03-06T20:43:43.283Z,20.02
2023-03-06T20:46:12.506Z,19.25
2023-03-06T20:48:42.741Z,20.08
2023-03-06T20:51:17.406Z,20.48
2023-03-06T20:53:45.350Z,20.15
2023-03-06T20:56:13.750Z,23.15
2023-03-06T20:58:41.794Z,19.65
2023-03-06T21:01:09.599Z,20.17
2023-03-06T21:03:37.389Z,24.23
2023-03-06T21:06:07.074Z,21.92
2023-03-06T21:08:34.845Z,20.00
2023-03-06T21:11:02.624Z,18.20
2023-03-06T21:13:30.382Z,20.10
2023-03-06T21:15:58.233Z,21.15
2023-03-06T21:18:26.302Z,23.35
2023-03-06T21:20:54.058Z,18.13
2023-03-06T21:23:23.224Z,21.75
2023-03-06T21:25:53.280Z,20.90
2023-03-06T21:28:21.261Z,21.40
2023-03-06T21:30:49.064Z,19.85
2023-03-06T21:33:16.951Z,19.77
2023-03-06T21:35:45.936Z,20.08
2023-03-06T21:38:15.471Z,18.35
2023-03-06T21:40:45.784Z,21.13
2023-03-06T21:43:15.727Z,16.58
2023-03-06T21:45:44.942Z,17.83
2023-03-06T21:48:13.322Z,19.92
2023-03-06T21:50:41.598Z,19.60
2023-03-06T21:53:09.920Z,18.20
2023-03-06T21:55:40.399Z,18.30
2023-03-06T21:58:09.906Z,18.60
2023-03-06T22:00:38.068Z,19.48
2023-03-06T22:03:06.611Z,20.38
2023-03-06T22:05:34.673Z,17.05
2023-03-06T22:08:02.435Z,20.83
2023-03-06T22:10:30.181Z,23.20
2023-03-06T22:12:57.965Z,19.75
2023-03-06T22:15:27.091Z,21.02
2023-03-06T22:17:54.839Z,19.45
2023-03-06T22:20:22.668Z,27.15
2023-03-06T22:22:50.638Z,22.17
2023-03-06T22:25:18.528Z,23.13
2023-03-06T22:27:46.342Z,22.08
2023-03-06T22:30:14.415Z,22.08
2023-03-06T22:32:43.567Z,23.33
2023-03-06T22:35:11.739Z,23.90
2023-03-06T22:37:39.606Z,34.20
2023-03-06T22:40:08.350Z,22.45
2023-03-06T22:42:36.102Z,21.58
2023-03-06T22:45:03.883Z,19.42
2023-03-06T22:47:31.652Z,22.67
2023-03-06T22:50:00.764Z,19.13
2023-03-06T22:52:28.503Z,16.95
2023-03-06T22:54:56.270Z,24.10
2023-03-06T22:57:24.091Z,18.42
2023-03-06T22:59:51.811Z,23.67
2023-03-06T23:02:20.046Z,21.48
2023-03-06T23:04:52.252Z,22.92
2023-03-06T23:07:22.296Z,22.83
2023-03-06T23:09:50.153Z,23.98
2023-03-06T23:12:17.926Z,20.17
2023-03-06T23:14:49.510Z,19.30
2023-03-06T23:17:17.337Z,18.40
2023-03-06T23:19:45.212Z,19.13
2023-03-06T23:22:14.362Z,22.50
2023-03-06T23:24:43.879Z,22.55
2023-03-06T23:27:11.760Z,23.20
2023-03-06T23:29:39.651Z,24.33
2023-03-06T23:32:08.224Z,20.27
2023-03-06T23:34:36.320Z,22.88
2023-03-06T23:37:04.420Z,20.50
2023-03-06T23:39:33.594Z,40.75
2023-03-06T23:42:02.791Z,21.30
2023-03-06T23:44:30.841Z,22.65
2023-03-06T23:46:58.623Z,20.88
2023-03-06T23:49:26.381Z,23.15
2023-03-06T23:51:54.271Z,20.33
2023-03-06T23:54:22.133Z,21.85
2023-03-06T23:56:49.984Z,24.00
2023-03-06T23:59:19.060Z,25.92
